Power, MT (59468)

9:13 PM MST on February 23, 2017 (GMT -0700)
Johnson Farm | | Change Station

Elev 3709 ft 47.65 °N, 111.71 °W | Updated 1 minute ago

Overcast
Overcast
23.0 °F
Feels Like 17 °F
N
4.7
Wind Variable Wind from NE

Today
High -- | Low -- °F
--% Chance of Precip.
Yesterday
High -- | Low -- °F
Precip. -- in
Pressure 30.13 in
Visibility 8.0 miles
Clouds Overcast 800 ft
Windchill 17 °F
Dew Point 22 °F
Humidity 96%
Rainfall 0.00 in
Snow Depth Not available.
7:17 AM 6:02 PM
Waning Crescent, 7% visible
METAR KGTF 240353Z 01007KT 8SM OVC008 M04/M06 A2997 RMK AO2 SNE41 SLP202 P0000 T10441061
Pressure 30.13 in
Visibility 8.0 miles
Clouds Overcast 800 ft
Windchill 17 °F
Dew Point 22 °F
Humidity 96%
Rainfall 0.00 in
Snow Depth Not available.
7:17 AM 6:02 PM
Waning Crescent, 7% visible
METAR KGTF 240353Z 01007KT 8SM OVC008 M04/M06 A2997 RMK AO2 SNE41 SLP202 P0000 T10441061

Get Your Daily Forecast Email!

Thanks for signing up!

Be on the lookout for a verification email in your inbox.

You'll start receiving the daily forecast at 8 AM.

×

10-Day Weather Forecast

Almanac

Astronomy

Feb. 23, 2017 Rise Set
Actual Time
Civil Twilight
Nautical Twilight
Astronomical Twilight
Moon
Length of Visible Light
Length of Day
Tomorrow will be .
, % of the Moon is Illuminated

Today's Extremes

State Highs State Lows

Community

WunderPhotos

Upload Photos

1,962,540 photos uploaded!

WunderBlog® & News

Nearby

Air Quality

  Air Quality AQ Index Pollutant
Not available.

Snow Depth

Station Depth Elevation

Earthquake Activity

City Distance Mag. Time & Date
Minimum magnitude displayed is 2.5.

Coastal Water Temperatures

Place Temperature

Stations

Nearby Weather Stations

Station Location Temp. Windchill Dew Point Humidity Wind Precip. Elev Updated Type
                   

Watches & Warnings

There are currently no watches in effect.